createdAt,value
2022-09-27T00:01:10.441Z,79.10
2022-09-27T00:03:40.696Z,78.85
2022-09-27T00:06:13.303Z,78.91
2022-09-27T00:08:41.281Z,78.04
2022-09-27T00:11:13.764Z,78.13
2022-09-27T00:13:41.736Z,77.97
2022-09-27T00:16:10.534Z,77.84
2022-09-27T00:18:40.579Z,77.49
2022-09-27T00:21:10.660Z,77.15
2022-09-27T00:23:39.455Z,76.56
2022-09-27T00:26:09.015Z,76.39
2022-09-27T00:28:36.916Z,76.61
2022-09-27T00:31:05.135Z,76.67
2022-09-27T00:33:33.203Z,76.62
2022-09-27T00:36:07.304Z,76.01
2022-09-27T00:38:35.191Z,76.04
2022-09-27T00:41:03.233Z,76.25
2022-09-27T00:43:45.300Z,76.24
2022-09-27T00:46:16.385Z,76.26
2022-09-27T00:48:44.384Z,75.93
2022-09-27T00:51:13.765Z,75.62
2022-09-27T00:53:46.578Z,75.66
2022-09-27T00:56:21.322Z,75.31
2022-09-27T00:58:54.856Z,75.62
2022-09-27T01:01:22.998Z,75.68
2022-09-27T01:03:57.714Z,76.05
2022-09-27T01:06:27.091Z,76.46
2022-09-27T01:08:54.993Z,77.58
2022-09-27T01:11:35.192Z,77.93
2022-09-27T01:14:30.091Z,78.73
2022-09-27T01:17:05.698Z,78.19
2022-09-27T01:20:17.804Z,77.65
2022-09-27T01:23:00.987Z,78.13
2022-09-27T01:25:50.331Z,78.08
2022-09-27T01:28:24.213Z,78.34
2022-09-27T01:30:57.419Z,78.65
2022-09-27T01:33:39.857Z,78.77
2022-09-27T01:36:21.897Z,78.67
2022-09-27T01:39:02.519Z,78.42
2022-09-27T01:41:49.456Z,78.37
2022-09-27T01:44:38.233Z,77.94
2022-09-27T01:47:20.105Z,78.54
2022-09-27T01:50:01.410Z,78.14
2022-09-27T01:52:36.189Z,78.27
2022-09-27T01:55:08.537Z,79.10
2022-09-27T01:58:22.001Z,78.54
2022-09-27T02:00:55.744Z,78.56
2022-09-27T02:03:31.533Z,78.26
2022-09-27T02:06:29.233Z,78.24
2022-09-27T02:09:11.672Z,78.18
2022-09-27T02:12:00.241Z,77.77
2022-09-27T02:14:36.785Z,77.75
2022-09-27T02:17:13.900Z,77.47
2022-09-27T02:19:53.443Z,77.08
2022-09-27T02:22:34.946Z,76.36
2022-09-27T02:25:11.517Z,76.75
2022-09-27T02:27:49.817Z,77.20
2022-09-27T02:30:20.541Z,77.62
2022-09-27T02:32:54.600Z,77.52
2022-09-27T02:35:29.624Z,76.98
2022-09-27T02:37:58.526Z,76.98
2022-09-27T02:40:32.787Z,76.76
2022-09-27T02:43:02.824Z,77.17
2022-09-27T02:45:42.503Z,76.85
2022-09-27T02:48:23.948Z,76.59
2022-09-27T02:51:14.129Z,77.73
2022-09-27T02:53:56.040Z,78.15
2022-09-27T02:56:51.702Z,78.21
2022-09-27T02:59:49.397Z,78.17
2022-09-27T03:02:44.096Z,77.74
2022-09-27T03:05:34.800Z,78.61
2022-09-27T03:08:05.226Z,77.52
2022-09-27T03:10:34.195Z,77.98
2022-09-27T03:13:02.173Z,78.49
2022-09-27T03:15:30.124Z,78.16
2022-09-27T03:18:04.395Z,78.81
2022-09-27T03:20:53.822Z,78.98
2022-09-27T03:23:24.813Z,79.64
2022-09-27T03:25:53.392Z,79.42
2022-09-27T03:28:21.648Z,79.57
2022-09-27T03:30:50.052Z,79.69
2022-09-27T03:33:37.949Z,79.49
2022-09-27T03:36:12.526Z,79.45
2022-09-27T03:38:42.149Z,79.59
2022-09-27T03:41:13.551Z,80.60
2022-09-27T03:43:41.717Z,79.73
2022-09-27T03:46:09.723Z,79.95
2022-09-27T03:48:38.080Z,79.90
2022-09-27T03:51:06.136Z,80.36
2022-09-27T03:53:34.100Z,79.14
2022-09-27T03:56:03.529Z,79.35
2022-09-27T03:58:31.548Z,79.17
2022-09-27T04:00:59.613Z,79.45
2022-09-27T04:03:30.531Z,79.68
2022-09-27T04:06:23.915Z,79.39
2022-09-27T04:08:51.873Z,79.03
2022-09-27T04:11:23.154Z,78.65
2022-09-27T04:13:51.219Z,78.55
2022-09-27T04:16:21.368Z,78.23
2022-09-27T04:19:04.216Z,78.14
2022-09-27T04:21:37.756Z,78.03
2022-09-27T04:24:06.970Z,77.70
2022-09-27T04:26:37.472Z,77.63
2022-09-27T04:29:12.156Z,77.66
2022-09-27T04:31:44.453Z,77.76
2022-09-27T04:34:56.981Z,78.45
2022-09-27T04:37:26.734Z,78.20
2022-09-27T04:40:01.980Z,78.88
2022-09-27T04:42:33.068Z,78.67
2022-09-27T04:45:00.960Z,78.18
2022-09-27T04:47:28.857Z,77.85
2022-09-27T04:49:56.828Z,78.24
2022-09-27T04:52:24.735Z,78.17
2022-09-27T04:54:53.059Z,78.90
2022-09-27T04:57:21.364Z,78.79
2022-09-27T04:59:51.576Z,78.98
2022-09-27T05:02:19.805Z,79.33
2022-09-27T05:05:10.652Z,80.07
2022-09-27T05:07:41.909Z,79.69
2022-09-27T05:10:15.444Z,80.08
2022-09-27T05:12:43.349Z,79.89
2022-09-27T05:15:16.290Z,79.78
2022-09-27T05:18:10.806Z,79.70
2022-09-27T05:21:04.512Z,79.92
2022-09-27T05:23:38.583Z,79.63
2022-09-27T05:26:07.483Z,79.84
2022-09-27T05:28:36.104Z,80.62
2022-09-27T05:31:05.752Z,80.37
2022-09-27T05:33:34.307Z,80.22
2022-09-27T05:36:40.419Z,80.00
2022-09-27T05:39:09.267Z,80.12
2022-09-27T05:41:37.376Z,79.91
2022-09-27T05:44:05.945Z,79.83
2022-09-27T05:46:36.055Z,79.01
2022-09-27T05:49:05.144Z,78.02
2022-09-27T05:51:33.337Z,78.37
2022-09-27T05:54:01.224Z,78.56
2022-09-27T05:56:30.005Z,78.23
2022-09-27T05:59:14.980Z,78.34
2022-09-27T06:02:04.609Z,78.93
2022-09-27T06:04:51.142Z,79.13
2022-09-27T06:07:39.176Z,78.86
2022-09-27T06:10:10.913Z,77.92
2022-09-27T06:12:39.225Z,77.62
2022-09-27T06:15:17.834Z,77.12
2022-09-27T06:17:48.097Z,76.49
2022-09-27T06:20:19.031Z,76.49
2022-09-27T06:22:48.137Z,76.62
2022-09-27T06:25:16.520Z,76.38
2022-09-27T06:28:06.010Z,76.71
2022-09-27T06:30:40.631Z,76.61
2022-09-27T06:33:19.598Z,76.68
2022-09-27T06:35:52.284Z,76.43
2022-09-27T06:38:21.178Z,76.24
2022-09-27T06:40:57.982Z,76.28
2022-09-27T06:43:40.588Z,76.77
2022-09-27T06:46:40.654Z,76.18
2022-09-27T06:49:25.535Z,75.47
2022-09-27T06:51:54.754Z,74.75
2022-09-27T06:54:23.959Z,74.14
2022-09-27T06:56:51.948Z,73.61
2022-09-27T06:59:37.225Z,73.68
2022-09-27T07:02:25.199Z,73.46
2022-09-27T07:05:17.816Z,73.02
2022-09-27T07:08:00.469Z,73.51
2022-09-27T07:10:32.747Z,73.77
2022-09-27T07:13:05.413Z,74.34
2022-09-27T07:15:36.369Z,74.10
2022-09-27T07:18:08.985Z,74.36
2022-09-27T07:20:38.412Z,74.35
2022-09-27T07:23:08.326Z,73.48
2022-09-27T07:25:36.538Z,73.57
2022-09-27T07:28:06.347Z,72.89
2022-09-27T07:30:35.969Z,73.12
2022-09-27T07:33:07.051Z,73.20
2022-09-27T07:35:36.922Z,73.37
2022-09-27T07:38:08.204Z,73.49
2022-09-27T07:40:37.875Z,73.28
2022-09-27T07:43:05.926Z,73.77
2022-09-27T07:45:35.240Z,73.88
2022-09-27T07:48:13.838Z,73.68
2022-09-27T07:51:19.849Z,73.32
2022-09-27T07:53:55.403Z,72.93
2022-09-27T07:56:41.696Z,72.90
2022-09-27T07:59:12.545Z,72.59
2022-09-27T08:01:40.813Z,72.93
2022-09-27T08:04:08.785Z,72.85
2022-09-27T08:06:36.832Z,73.09
2022-09-27T08:09:09.712Z,72.84
2022-09-27T08:11:39.424Z,72.71
2022-09-27T08:14:08.507Z,72.96
2022-09-27T08:16:36.920Z,73.37
2022-09-27T08:19:36.757Z,73.58
2022-09-27T08:22:04.648Z,73.34
2022-09-27T08:25:14.045Z,73.52
2022-09-27T08:28:04.555Z,73.36
2022-09-27T08:30:38.349Z,73.72
2022-09-27T08:33:08.219Z,74.54
2022-09-27T08:35:36.941Z,75.25
2022-09-27T08:38:06.363Z,75.77
2022-09-27T08:40:50.303Z,76.34
2022-09-27T08:43:27.338Z,77.50
2022-09-27T08:46:06.261Z,78.02
2022-09-27T08:48:38.460Z,78.27
2022-09-27T08:51:11.876Z,78.70
2022-09-27T08:53:46.834Z,78.62
2022-09-27T08:56:21.231Z,78.73
2022-09-27T08:58:54.024Z,78.99
2022-09-27T09:01:29.132Z,78.82
2022-09-27T09:04:11.280Z,78.94
2022-09-27T09:06:44.456Z,79.13
2022-09-27T09:09:22.817Z,79.39
2022-09-27T09:12:47.876Z,80.23
2022-09-27T09:15:33.740Z,81.43
2022-09-27T09:18:23.832Z,81.87
2022-09-27T09:21:14.761Z,82.00
2022-09-27T09:24:00.456Z,81.88
2022-09-27T09:26:36.186Z,82.36
2022-09-27T09:29:28.634Z,82.19
2022-09-27T09:32:06.079Z,82.41
2022-09-27T09:34:39.368Z,82.50
2022-09-27T09:37:16.833Z,82.49
2022-09-27T09:39:49.985Z,82.92
2022-09-27T09:42:25.876Z,83.34
2022-09-27T09:45:00.805Z,83.47
2022-09-27T09:47:37.265Z,83.30
2022-09-27T09:50:18.284Z,83.49
2022-09-27T09:52:51.781Z,83.92
2022-09-27T09:55:22.731Z,84.31
2022-09-27T09:58:02.321Z,84.34
2022-09-27T10:00:40.227Z,84.79
2022-09-27T10:03:08.367Z,84.67
2022-09-27T10:05:36.789Z,84.38
2022-09-27T10:08:14.498Z,84.62
2022-09-27T10:10:42.600Z,84.69
2022-09-27T10:13:42.421Z,84.81
2022-09-27T10:16:16.933Z,85.14
2022-09-27T10:18:49.852Z,84.66
2022-09-27T10:21:22.812Z,84.17
2022-09-27T10:24:12.417Z,84.37
2022-09-27T10:27:02.512Z,84.04
2022-09-27T10:29:37.972Z,83.87
2022-09-27T10:32:27.183Z,83.29
2022-09-27T10:35:32.759Z,83.61
2022-09-27T10:38:22.523Z,83.65
2022-09-27T10:40:53.265Z,83.24
2022-09-27T10:43:29.814Z,83.29
2022-09-27T10:46:13.397Z,83.91
2022-09-27T10:48:44.695Z,84.06
2022-09-27T10:51:27.216Z,83.72
2022-09-27T10:54:00.221Z,83.52
2022-09-27T10:56:33.575Z,83.58
2022-09-27T10:59:04.120Z,84.34
2022-09-27T11:01:41.857Z,84.98
2022-09-27T11:04:28.707Z,85.73
2022-09-27T11:07:09.674Z,86.89
2022-09-27T11:09:49.174Z,87.16
2022-09-27T11:12:20.618Z,87.84
2022-09-27T11:15:00.109Z,87.83
2022-09-27T11:17:36.421Z,88.04
2022-09-27T11:20:17.945Z,87.88
2022-09-27T11:23:23.809Z,87.95
2022-09-27T11:26:07.757Z,88.02
2022-09-27T11:28:49.976Z,87.49
2022-09-27T11:31:44.840Z,87.42
2022-09-27T11:34:46.478Z,88.03
2022-09-27T11:37:27.335Z,87.34
2022-09-27T11:40:13.849Z,87.90
2022-09-27T11:43:08.793Z,87.97
2022-09-27T11:46:14.331Z,88.02
2022-09-27T11:48:57.354Z,89.47
2022-09-27T11:51:40.715Z,90.76
2022-09-27T11:54:30.682Z,91.19
2022-09-27T11:57:04.131Z,91.10
2022-09-27T11:59:49.289Z,90.04
2022-09-27T12:02:35.205Z,90.48
2022-09-27T12:05:34.949Z,89.55
2022-09-27T12:08:22.479Z,89.12
2022-09-27T12:10:55.838Z,88.30
2022-09-27T12:13:33.065Z,87.25
2022-09-27T12:16:03.024Z,85.75
2022-09-27T12:18:39.065Z,84.03
2022-09-27T12:21:18.611Z,82.32
2022-09-27T12:23:50.148Z,81.35
2022-09-27T12:26:37.458Z,80.07
2022-09-27T12:29:14.268Z,79.59
2022-09-27T12:31:47.307Z,79.03
2022-09-27T12:34:20.430Z,80.08
2022-09-27T12:36:58.338Z,79.86
2022-09-27T12:39:30.044Z,79.72
2022-09-27T12:42:18.168Z,79.65
2022-09-27T12:44:51.548Z,79.08
2022-09-27T12:47:34.460Z,78.73
2022-09-27T12:50:12.536Z,78.79
2022-09-27T12:52:46.269Z,77.95
2022-09-27T12:55:44.993Z,77.39
2022-09-27T12:58:34.000Z,77.03
2022-09-27T13:01:10.979Z,76.92
2022-09-27T13:03:56.516Z,77.02
2022-09-27T13:06:49.933Z,77.61
2022-09-27T13:09:33.818Z,77.43
2022-09-27T13:12:10.857Z,76.89
2022-09-27T13:14:51.737Z,76.58
2022-09-27T13:17:54.185Z,76.85
2022-09-27T13:20:48.184Z,76.38
2022-09-27T13:24:03.651Z,76.08
2022-09-27T13:26:52.102Z,75.66
2022-09-27T13:29:34.266Z,75.93
2022-09-27T13:32:17.478Z,75.84
2022-09-27T13:35:19.214Z,75.75
2022-09-27T13:37:58.982Z,75.36
2022-09-27T13:40:35.915Z,75.40
2022-09-27T13:43:44.839Z,75.14
2022-09-27T13:46:53.391Z,74.68
2022-09-27T13:49:30.235Z,73.51
2022-09-27T13:52:20.765Z,73.53
2022-09-27T13:54:57.020Z,72.56
2022-09-27T13:57:50.907Z,72.72
2022-09-27T14:00:24.710Z,72.81
2022-09-27T14:03:42.369Z,72.98
2022-09-27T14:06:22.492Z,73.45
2022-09-27T14:08:52.704Z,73.63
2022-09-27T14:11:25.752Z,73.52
2022-09-27T14:13:57.121Z,73.72
2022-09-27T14:16:32.705Z,73.91
2022-09-27T14:19:02.539Z,73.68
2022-09-27T14:21:41.561Z,73.44
2022-09-27T14:24:47.092Z,73.00
2022-09-27T14:27:24.975Z,73.14
2022-09-27T14:30:07.307Z,72.92
2022-09-27T14:32:47.820Z,73.50
2022-09-27T14:35:41.470Z,73.38
2022-09-27T14:38:36.163Z,73.92
2022-09-27T14:41:08.362Z,73.88
2022-09-27T14:43:37.904Z,74.37
2022-09-27T14:46:07.648Z,74.40
2022-09-27T14:48:38.794Z,74.14
2022-09-27T14:51:20.558Z,74.18
2022-09-27T14:53:53.499Z,74.41
2022-09-27T14:56:26.019Z,74.21
2022-09-27T14:59:02.384Z,74.21
2022-09-27T15:01:30.920Z,74.77
2022-09-27T15:04:05.818Z,75.18
2022-09-27T15:06:34.455Z,75.59
2022-09-27T15:09:05.372Z,75.69
2022-09-27T15:11:34.800Z,75.78
2022-09-27T15:14:05.848Z,75.70
2022-09-27T15:16:35.833Z,75.81
2022-09-27T15:19:15.527Z,76.00
2022-09-27T15:21:43.604Z,75.98
2022-09-27T15:24:40.524Z,76.00
2022-09-27T15:27:16.364Z,76.50
2022-09-27T15:29:50.046Z,76.97
2022-09-27T15:32:21.509Z,77.11
2022-09-27T15:34:49.460Z,77.65
2022-09-27T15:37:28.857Z,77.88
2022-09-27T15:40:29.869Z,78.00
2022-09-27T15:43:00.976Z,78.22
2022-09-27T15:45:30.339Z,78.05
2022-09-27T15:48:09.260Z,78.35
2022-09-27T15:50:38.729Z,78.65
2022-09-27T15:53:07.079Z,78.79
2022-09-27T15:55:42.581Z,79.02
2022-09-27T15:58:16.490Z,78.96
2022-09-27T16:00:54.256Z,79.53
2022-09-27T16:03:22.968Z,79.35
2022-09-27T16:05:50.832Z,79.73
2022-09-27T16:08:18.683Z,79.96
2022-09-27T16:10:51.814Z,80.00
2022-09-27T16:13:19.765Z,79.60
2022-09-27T16:15:49.146Z,79.93
2022-09-27T16:18:16.973Z,80.25
2022-09-27T16:20:44.910Z,80.30
2022-09-27T16:23:12.709Z,80.27
2022-09-27T16:25:40.730Z,80.18
2022-09-27T16:28:11.757Z,80.56
2022-09-27T16:30:39.620Z,80.71
2022-09-27T16:33:07.425Z,80.85
2022-09-27T16:35:35.260Z,81.18
2022-09-27T16:38:03.041Z,81.49
2022-09-27T16:40:32.014Z,81.45
2022-09-27T16:42:59.877Z,81.56
2022-09-27T16:45:34.091Z,81.65
2022-09-27T16:48:02.405Z,81.85
2022-09-27T16:50:47.642Z,81.79
2022-09-27T16:53:15.452Z,81.91
2022-09-27T16:55:43.196Z,81.95
2022-09-27T16:58:11.368Z,82.06
2022-09-27T17:00:42.170Z,82.25
2022-09-27T17:03:10.243Z,82.47
2022-09-27T17:05:38.079Z,82.16
2022-09-27T17:08:05.975Z,82.31
2022-09-27T17:10:35.752Z,82.63
2022-09-27T17:13:03.794Z,82.70
2022-09-27T17:15:31.583Z,82.76
2022-09-27T17:18:00.751Z,82.84
2022-09-27T17:20:28.536Z,83.02
2022-09-27T17:22:57.056Z,83.27
2022-09-27T17:25:24.846Z,83.24
2022-09-27T17:27:52.610Z,83.44
2022-09-27T17:30:21.016Z,83.39
2022-09-27T17:32:48.958Z,83.42
2022-09-27T17:35:18.100Z,83.50
2022-09-27T17:37:46.138Z,83.54
2022-09-27T17:40:15.926Z,83.52
2022-09-27T17:42:44.061Z,83.65
2022-09-27T17:45:12.042Z,83.66
2022-09-27T17:47:57.260Z,83.81
2022-09-27T17:50:28.379Z,83.63
2022-09-27T17:52:58.617Z,83.57
2022-09-27T17:55:27.019Z,83.70
2022-09-27T17:57:54.845Z,83.84
2022-09-27T18:00:22.765Z,83.82
2022-09-27T18:02:50.675Z,84.08
2022-09-27T18:05:21.193Z,84.10
2022-09-27T18:07:50.514Z,83.96
2022-09-27T18:10:18.679Z,83.85
2022-09-27T18:12:46.449Z,84.16
2022-09-27T18:15:16.906Z,84.32
2022-09-27T18:17:45.918Z,84.43
2022-09-27T18:20:13.749Z,83.97
2022-09-27T18:22:41.604Z,84.29
2022-09-27T18:25:11.987Z,84.51
2022-09-27T18:27:40.918Z,84.53
2022-09-27T18:30:10.167Z,84.24
2022-09-27T18:32:38.084Z,84.27
2022-09-27T18:35:06.965Z,84.49
2022-09-27T18:37:34.835Z,84.34
2022-09-27T18:40:02.941Z,84.71
2022-09-27T18:42:32.169Z,84.73
2022-09-27T18:44:59.979Z,84.38
2022-09-27T18:47:27.878Z,84.47
2022-09-27T18:49:55.645Z,84.44
2022-09-27T18:52:23.472Z,84.04
2022-09-27T18:54:51.236Z,84.06
2022-09-27T18:57:19.066Z,83.85
2022-09-27T18:59:49.222Z,84.01
2022-09-27T19:02:17.229Z,83.75
2022-09-27T19:04:45.038Z,83.88
2022-09-27T19:07:12.819Z,83.50
2022-09-27T19:09:40.736Z,83.30
2022-09-27T19:12:08.537Z,83.60
2022-09-27T19:14:36.399Z,83.34
2022-09-27T19:17:05.648Z,83.64
2022-09-27T19:19:33.451Z,83.46
2022-09-27T19:22:01.242Z,83.52
2022-09-27T19:24:29.076Z,83.23
2022-09-27T19:26:57.253Z,83.38
2022-09-27T19:29:25.064Z,83.43
2022-09-27T19:31:52.955Z,83.48
2022-09-27T19:34:22.181Z,83.33
2022-09-27T19:36:49.969Z,83.39
2022-09-27T19:39:18.003Z,83.24
2022-09-27T19:41:45.912Z,83.17
2022-09-27T19:44:13.889Z,83.37
2022-09-27T19:46:41.805Z,83.72
2022-09-27T19:49:09.798Z,84.04
2022-09-27T19:51:39.032Z,84.10
2022-09-27T19:54:06.876Z,84.10
2022-09-27T19:56:34.883Z,83.54
2022-09-27T19:59:06.855Z,83.69
2022-09-27T20:01:35.835Z,83.69
2022-09-27T20:04:04.120Z,83.90
2022-09-27T20:06:32.684Z,83.52
2022-09-27T20:09:03.530Z,83.60
2022-09-27T20:11:33.108Z,83.80
2022-09-27T20:14:00.878Z,84.45
2022-09-27T20:16:29.410Z,84.62
2022-09-27T20:18:58.959Z,84.84
2022-09-27T20:21:28.713Z,84.92
2022-09-27T20:23:57.745Z,85.06
2022-09-27T20:26:28.816Z,84.67
2022-09-27T20:28:58.802Z,84.93
2022-09-27T20:31:30.683Z,85.50
2022-09-27T20:33:58.535Z,85.60
2022-09-27T20:36:28.028Z,85.26
2022-09-27T20:39:01.993Z,85.78
2022-09-27T20:41:34.107Z,85.37
2022-09-27T20:44:04.367Z,85.94
2022-09-27T20:46:32.970Z,85.90
2022-09-27T20:49:03.512Z,85.96
2022-09-27T20:51:33.230Z,85.94
2022-09-27T20:54:01.825Z,85.70
2022-09-27T20:56:33.138Z,85.91
2022-09-27T20:59:03.170Z,86.07
2022-09-27T21:01:32.394Z,85.42
2022-09-27T21:04:01.938Z,85.83
2022-09-27T21:06:31.476Z,85.57
2022-09-27T21:09:00.788Z,85.50
2022-09-27T21:11:28.797Z,85.67
2022-09-27T21:13:57.948Z,85.79
2022-09-27T21:16:29.967Z,85.50
2022-09-27T21:18:58.609Z,85.49
2022-09-27T21:21:27.464Z,85.72
2022-09-27T21:23:57.584Z,85.55
2022-09-27T21:26:26.700Z,85.18
2022-09-27T21:28:56.290Z,85.57
2022-09-27T21:31:27.076Z,85.62
2022-09-27T21:33:58.521Z,85.49
2022-09-27T21:36:28.884Z,85.63
2022-09-27T21:38:57.238Z,85.22
2022-09-27T21:41:25.562Z,85.31
2022-09-27T21:43:53.876Z,85.04
2022-09-27T21:46:23.585Z,85.14
2022-09-27T21:48:55.707Z,84.94
2022-09-27T21:51:25.533Z,84.79
2022-09-27T21:53:54.972Z,84.88
2022-09-27T21:56:24.177Z,84.88
2022-09-27T21:58:52.229Z,84.39
2022-09-27T22:01:22.093Z,84.79
2022-09-27T22:03:53.980Z,85.23
2022-09-27T22:06:23.300Z,85.65
2022-09-27T22:08:53.091Z,85.59
2022-09-27T22:11:24.067Z,85.22
2022-09-27T22:13:51.966Z,85.35
2022-09-27T22:16:21.451Z,85.03
2022-09-27T22:18:51.048Z,85.09
2022-09-27T22:21:23.897Z,85.86
2022-09-27T22:23:54.736Z,85.26
2022-09-27T22:26:25.185Z,85.42
2022-09-27T22:28:53.284Z,85.54
2022-09-27T22:31:22.433Z,85.32
2022-09-27T22:33:51.484Z,83.76
2022-09-27T22:36:20.979Z,83.83
2022-09-27T22:38:49.324Z,83.45
2022-09-27T22:41:17.341Z,83.06
2022-09-27T22:43:45.291Z,82.83
2022-09-27T22:46:13.955Z,83.51
2022-09-27T22:48:42.482Z,81.93
2022-09-27T22:51:10.908Z,82.49
2022-09-27T22:53:40.178Z,81.81
2022-09-27T22:56:09.855Z,81.99
2022-09-27T22:58:38.677Z,81.75
2022-09-27T23:01:11.152Z,81.86
2022-09-27T23:03:39.489Z,81.63
2022-09-27T23:06:08.138Z,81.77
2022-09-27T23:08:36.903Z,81.26
2022-09-27T23:11:08.726Z,81.68
2022-09-27T23:13:38.883Z,81.36
2022-09-27T23:16:08.878Z,80.96
2022-09-27T23:18:37.333Z,79.90
2022-09-27T23:21:08.243Z,81.03
2022-09-27T23:23:37.213Z,80.27
2022-09-27T23:26:07.882Z,79.70
2022-09-27T23:28:36.099Z,80.15
2022-09-27T23:31:08.575Z,80.18
2022-09-27T23:33:36.927Z,79.83
2022-09-27T23:36:05.009Z,78.79
2022-09-27T23:38:33.352Z,79.16
2022-09-27T23:41:01.487Z,79.10
2022-09-27T23:43:30.715Z,79.37
2022-09-27T23:45:58.487Z,79.54
2022-09-27T23:48:26.932Z,79.91
2022-09-27T23:50:54.971Z,79.81
2022-09-27T23:53:22.896Z,78.64
2022-09-27T23:56:02.193Z,80.00
2022-09-27T23:58:33.414Z,80.37
